Time;durP1;ratioP1;P1;durP2;ratioP2;P2;SDS_P1;SDS_P2;PMS_P1;PMS_P2;Temp;Humidity;BMP_temperature;BMP_pressure;BME280_temperature;BME280_humidity;BME280_pressure;Samples;Min_cycle;Max_cycle;Signal;HPM_P1;HPM_P2
2022/04/24 00:00:19;;;;;;;9.02;6.55;;;;;;;12.78;46.87;100168.69;5014478;28;20101;-58
2022/04/24 00:02:45;;;;;;;8.68;6.35;;;;;;;12.78;46.43;100174.00;5018896;28;20169;-58
2022/04/24 00:05:11;;;;;;;7.50;6.15;;;;;;;12.70;47.33;100175.00;5021900;28;20084;-58
2022/04/24 00:07:36;;;;;;;8.98;6.60;;;;;;;12.59;47.20;100172.84;5034295;28;20021;-58
2022/04/24 00:10:02;;;;;;;8.75;6.20;;;;;;;12.57;47.51;100169.53;5012942;28;20843;-58
2022/04/24 00:12:27;;;;;;;7.45;6.50;;;;;;;12.51;48.04;100171.97;5014936;28;20053;-58
2022/04/24 00:14:52;;;;;;;7.22;6.20;;;;;;;12.51;47.12;100166.66;5011120;28;20028;-57
2022/04/24 00:17:20;;;;;;;9.15;6.80;;;;;;;12.40;47.84;100163.66;5020464;28;20041;-58
2022/04/24 00:19:45;;;;;;;8.77;6.53;;;;;;;12.34;48.37;100171.38;5014318;28;20049;-58
2022/04/24 00:22:11;;;;;;;8.20;6.78;;;;;;;12.28;48.49;100168.69;5019495;28;20384;-58
2022/04/24 00:24:36;;;;;;;7.97;6.50;;;;;;;12.16;49.14;100163.03;4996160;28;20104;-58
2022/04/24 00:27:02;;;;;;;8.65;6.43;;;;;;;12.18;48.97;100161.03;5013191;28;20034;-58
2022/04/24 00:29:27;;;;;;;7.88;6.63;;;;;;;12.12;49.32;100157.25;5013765;28;20044;-58
2022/04/24 00:31:53;;;;;;;8.80;6.53;;;;;;;12.08;49.13;100150.66;5012846;28;20461;-58
2022/04/24 00:34:18;;;;;;;7.53;6.45;;;;;;;12.03;49.69;100147.75;5015626;28;20038;-58
2022/04/24 00:36:46;;;;;;;7.78;6.60;;;;;;;11.97;49.79;100157.28;5013271;28;20057;-57
2022/04/24 00:39:13;;;;;;;9.25;6.55;;;;;;;12.00;49.50;100148.09;5011241;28;20034;-58
2022/04/24 00:41:46;;;;;;;8.20;6.63;;;;;;;11.93;49.83;100143.56;5010706;28;20097;-58
2022/04/24 00:44:11;;;;;;;8.32;6.70;;;;;;;11.83;49.96;100150.97;5013588;28;20052;-58
2022/04/24 00:46:56;;;;;;;9.32;6.80;;;;;;;11.89;49.25;100152.91;5013340;28;20033;-58
2022/04/24 00:49:22;;;;;;;7.85;6.70;;;;;;;11.80;49.98;100148.72;5005356;28;20419;-58
2022/04/24 00:51:49;;;;;;;7.68;6.68;;;;;;;11.87;49.76;100144.31;5010378;28;20034;-58
2022/04/24 00:54:14;;;;;;;8.75;7.05;;;;;;;11.74;49.69;100149.47;5012376;28;20488;-58
2022/04/24 00:56:40;;;;;;;9.23;7.03;;;;;;;11.70;50.19;100144.50;5013926;28;20105;-58
2022/04/24 00:59:08;;;;;;;8.65;7.00;;;;;;;11.66;50.54;100148.56;5018222;28;20654;-57
2022/04/24 01:01:34;;;;;;;13.82;7.43;;;;;;;11.57;50.44;100144.34;5006189;28;20084;-58
2022/04/24 01:04:02;;;;;;;8.55;6.57;;;;;;;11.48;51.37;100134.84;5008966;28;20026;-57
2022/04/24 01:06:31;;;;;;;10.23;7.22;;;;;;;11.54;50.39;100148.19;5013472;28;21872;-58
2022/04/24 01:09:09;;;;;;;8.43;7.05;;;;;;;11.46;51.13;100147.47;5011847;28;20077;-58
2022/04/24 01:11:35;;;;;;;8.35;6.90;;;;;;;11.35;52.04;100140.81;5016196;28;20026;-58
2022/04/24 01:14:00;;;;;;;9.10;7.55;;;;;;;11.33;51.46;100148.94;5010622;28;20080;-58
2022/04/24 01:16:25;;;;;;;8.68;7.22;;;;;;;11.30;51.89;100154.63;5009153;28;20054;-58
2022/04/24 01:18:50;;;;;;;8.23;7.30;;;;;;;11.24;52.01;100152.69;5013505;28;20102;-58
2022/04/24 01:21:16;;;;;;;10.88;7.30;;;;;;;11.30;51.13;100147.47;5015241;28;20049;-58
2022/04/24 01:23:41;;;;;;;9.07;6.85;;;;;;;11.24;51.74;100150.03;5012232;28;20037;-56
2022/04/24 01:26:06;;;;;;;8.20;6.75;;;;;;;11.16;52.16;100149.13;5012817;28;20392;-57
2022/04/24 01:28:32;;;;;;;9.32;6.90;;;;;;;11.14;52.47;100152.97;5019112;28;20037;-58
2022/04/24 01:30:57;;;;;;;9.68;7.10;;;;;;;11.20;51.40;100162.03;5025483;28;20084;-58
2022/04/24 01:33:22;;;;;;;9.07;7.25;;;;;;;11.12;52.56;100150.50;5014332;28;20072;-58
2022/04/24 01:35:48;;;;;;;8.20;6.82;;;;;;;11.15;52.17;100158.09;5012133;28;20465;-58
2022/04/24 01:38:13;;;;;;;9.30;7.13;;;;;;;11.04;52.41;100161.19;5009943;28;20084;-58
2022/04/24 01:40:38;;;;;;;10.45;7.50;;;;;;;11.00;52.84;100155.44;5009237;28;20147;-58
2022/04/24 01:43:04;;;;;;;9.45;7.43;;;;;;;11.00;53.15;100154.63;5009670;28;20029;-58
2022/04/24 01:45:29;;;;;;;8.23;7.18;;;;;;;11.02;52.61;100158.72;5009947;28;20034;-58
2022/04/24 01:47:54;;;;;;;8.65;7.35;;;;;;;11.02;51.81;100152.59;5012517;28;20022;-58
2022/04/24 01:50:20;;;;;;;9.20;7.50;;;;;;;11.05;51.84;100154.88;5012043;28;20084;-57
2022/04/24 01:52:45;;;;;;;10.90;7.28;;;;;;;11.00;52.25;100149.31;5010923;28;20037;-57
2022/04/24 01:55:11;;;;;;;11.35;7.38;;;;;;;10.97;53.24;100154.97;5011274;28;20100;-57
2022/04/24 01:57:36;;;;;;;9.50;7.70;;;;;;;10.97;53.06;100152.31;5011718;28;20037;-57
2022/04/24 02:00:02;;;;;;;9.02;6.88;;;;;;;10.94;53.27;100155.31;5014958;28;20029;-57
2022/04/24 02:02:27;;;;;;;8.05;7.07;;;;;;;10.92;53.74;100149.38;5009716;28;20079;-57
2022/04/24 02:04:52;;;;;;;8.98;7.03;;;;;;;10.90;53.39;100154.84;5010857;28;20036;-57
2022/04/24 02:07:18;;;;;;;10.43;7.40;;;;;;;10.90;52.51;100153.03;5012796;28;20033;-57
2022/04/24 02:09:43;;;;;;;10.90;7.82;;;;;;;10.81;53.56;100150.66;5010893;28;20473;-57
2022/04/24 02:12:08;;;;;;;9.07;7.15;;;;;;;10.79;53.63;100157.94;5022061;28;20040;-57
2022/04/24 02:14:34;;;;;;;9.77;7.18;;;;;;;10.66;54.02;100153.25;5013702;28;20464;-57
2022/04/24 02:16:59;;;;;;;9.43;7.60;;;;;;;10.66;54.55;100153.25;5013408;28;20473;-57
2022/04/24 02:19:24;;;;;;;11.13;8.07;;;;;;;10.57;53.97;100155.97;5009577;28;20060;-57
2022/04/24 02:21:50;;;;;;;12.23;7.65;;;;;;;10.59;54.82;100151.31;5019302;28;20030;-57
2022/04/24 02:24:15;;;;;;;10.65;7.80;;;;;;;10.73;53.53;100159.50;5009233;28;20101;-58
2022/04/24 02:26:40;;;;;;;9.50;7.80;;;;;;;10.65;53.90;100154.28;5019950;28;20109;-58
2022/04/24 02:29:06;;;;;;;10.38;7.70;;;;;;;10.55;55.00;100157.97;5011233;28;20025;-57
2022/04/24 02:31:31;;;;;;;9.70;7.80;;;;;;;10.56;54.06;100162.28;5006304;28;20017;-57
2022/04/24 02:33:57;;;;;;;11.05;8.10;;;;;;;10.52;54.62;100153.06;5012457;28;20027;-57
2022/04/24 02:36:22;;;;;;;8.43;7.38;;;;;;;10.42;54.38;100150.59;5009527;28;20031;-57
2022/04/24 02:38:47;;;;;;;13.85;8.20;;;;;;;10.49;54.40;100154.22;5016481;28;20030;-57
2022/04/24 02:41:12;;;;;;;9.35;7.63;;;;;;;10.53;54.16;100160.00;5002786;28;20030;-57
2022/04/24 02:43:38;;;;;;;10.10;7.80;;;;;;;10.51;54.28;100159.31;5004522;28;20037;-57
2022/04/24 02:46:03;;;;;;;10.55;8.20;;;;;;;10.52;54.14;100158.34;5007728;28;20037;-56
2022/04/24 02:48:28;;;;;;;10.73;8.05;;;;;;;10.56;54.38;100159.63;5018805;28;20080;-57
2022/04/24 02:50:54;;;;;;;12.57;8.70;;;;;;;10.52;54.41;100161.00;5010617;28;20463;-57
2022/04/24 02:53:19;;;;;;;11.30;8.45;;;;;;;10.57;54.45;100160.47;5015524;28;20038;-57
2022/04/24 02:55:44;;;;;;;9.90;8.13;;;;;;;10.52;54.36;100163.66;5015394;28;20038;-57
2022/04/24 02:58:10;;;;;;;10.75;8.32;;;;;;;10.60;54.33;100166.22;5014022;28;20026;-57
2022/04/24 03:00:49;;;;;;;11.50;8.85;;;;;;;10.55;54.75;100162.47;5020321;28;20060;-57
2022/04/24 03:03:16;;;;;;;10.13;8.60;;;;;;;10.58;54.91;100164.75;5023687;28;20022;-57
2022/04/24 03:05:41;;;;;;;11.65;8.80;;;;;;;10.54;54.23;100152.84;5021658;28;20025;-58
2022/04/24 03:08:07;;;;;;;10.95;8.82;;;;;;;10.57;55.13;100165.75;5016963;28;20045;-57
2022/04/24 03:10:32;;;;;;;12.68;9.00;;;;;;;10.53;54.64;100162.66;5013049;28;20022;-58
2022/04/24 03:12:58;;;;;;;11.75;8.85;;;;;;;10.50;54.76;100170.94;5014672;28;20084;-57
2022/04/24 03:15:23;;;;;;;11.77;9.45;;;;;;;10.44;55.03;100163.69;5013182;28;20021;-58
2022/04/24 03:17:49;;;;;;;11.77;8.98;;;;;;;10.45;54.63;100173.28;5015450;28;20061;-57
2022/04/24 03:20:15;;;;;;;11.27;9.35;;;;;;;10.38;54.54;100165.22;5011494;28;20552;-57
2022/04/24 03:22:40;;;;;;;12.07;9.80;;;;;;;10.34;55.28;100171.84;5021714;28;20025;-57
2022/04/24 03:25:08;;;;;;;12.82;9.40;;;;;;;10.27;55.72;100166.41;5011324;28;20045;-57
2022/04/24 03:27:34;;;;;;;11.05;9.50;;;;;;;10.26;54.92;100171.91;5016516;28;20033;-57
2022/04/24 03:29:59;;;;;;;12.07;9.23;;;;;;;10.19;55.39;100169.97;5014405;28;20061;-57
2022/04/24 03:32:24;;;;;;;15.40;9.70;;;;;;;10.18;56.11;100172.78;5012966;28;20069;-57
2022/04/24 03:34:50;;;;;;;13.23;9.52;;;;;;;10.06;55.84;100154.66;5012391;28;20084;-57
2022/04/24 03:37:16;;;;;;;13.18;9.32;;;;;;;10.07;55.60;100166.88;5013589;28;20045;-57
2022/04/24 03:39:41;;;;;;;11.25;9.63;;;;;;;9.98;56.36;100167.94;5008741;28;20033;-57
2022/04/24 03:42:07;;;;;;;12.77;9.68;;;;;;;9.97;56.10;100171.59;5013282;28;20034;-57
2022/04/24 03:44:33;;;;;;;12.55;9.93;;;;;;;9.90;56.92;100170.63;5014266;28;20108;-57
2022/04/24 03:46:58;;;;;;;13.43;10.15;;;;;;;9.86;56.45;100169.34;5027598;28;20089;-58
2022/04/24 03:49:24;;;;;;;14.48;9.88;;;;;;;9.82;57.30;100161.72;5012752;28;20072;-57
2022/04/24 03:51:49;;;;;;;12.77;10.02;;;;;;;9.74;57.70;100169.72;5014664;28;20501;-57
2022/04/24 03:54:15;;;;;;;12.30;9.60;;;;;;;9.76;57.16;100165.06;5012151;28;20021;-57
2022/04/24 03:56:40;;;;;;;12.88;9.65;;;;;;;9.64;57.90;100161.16;5010522;28;20060;-57
2022/04/24 03:59:05;;;;;;;13.00;10.13;;;;;;;9.58;58.11;100162.69;5005305;28;20045;-57
2022/04/24 04:01:30;;;;;;;12.75;9.68;;;;;;;9.52;58.27;100166.81;5012452;28;20033;-57
2022/04/24 04:03:57;;;;;;;12.32;10.10;;;;;;;9.45;59.02;100162.38;5005767;28;20464;-57
2022/04/24 04:06:23;;;;;;;13.45;10.50;;;;;;;9.41;59.20;100167.19;5000773;28;20089;-57
2022/04/24 04:08:48;;;;;;;14.25;10.05;;;;;;;9.39;59.00;100164.69;5014785;28;20034;-57
2022/04/24 04:11:14;;;;;;;14.80;9.90;;;;;;;9.29;59.72;100175.47;5002556;28;20064;-57
2022/04/24 04:13:39;;;;;;;12.43;9.90;;;;;;;9.33;59.24;100159.28;5017806;28;20104;-58
2022/04/24 04:16:04;;;;;;;14.10;10.43;;;;;;;9.26;59.71;100165.25;5004145;28;20030;-57
2022/04/24 04:18:30;;;;;;;14.43;10.18;;;;;;;9.25;59.49;100168.91;5004221;28;20058;-57
2022/04/24 04:20:55;;;;;;;12.48;10.38;;;;;;;9.10;60.73;100168.75;5023088;28;20052;-57
2022/04/24 04:23:20;;;;;;;13.82;10.60;;;;;;;9.13;60.33;100170.25;5018050;28;20057;-57
2022/04/24 04:25:46;;;;;;;13.38;10.40;;;;;;;9.15;60.14;100178.84;5009499;28;20031;-57
2022/04/24 04:28:11;;;;;;;15.50;10.55;;;;;;;9.01;60.81;100173.25;5013081;28;20033;-57
2022/04/24 04:30:36;;;;;;;15.85;10.77;;;;;;;9.00;61.08;100176.88;5010806;28;20591;-57
2022/04/24 04:33:02;;;;;;;13.77;10.40;;;;;;;9.03;60.95;100180.97;5011626;28;20468;-57
2022/04/24 04:35:27;;;;;;;15.77;10.50;;;;;;;9.04;61.48;100180.00;5016743;28;20033;-57
2022/04/24 04:37:53;;;;;;;13.70;10.80;;;;;;;9.04;61.34;100187.94;5013363;28;20029;-57
2022/04/24 04:40:20;;;;;;;13.25;10.05;;;;;;;9.04;61.11;100184.47;5030413;28;20483;-57
2022/04/24 04:42:45;;;;;;;13.90;10.35;;;;;;;9.08;60.84;100188.44;5012667;28;20064;-57
2022/04/24 04:45:11;;;;;;;13.73;10.18;;;;;;;8.98;61.75;100188.63;5026546;28;20453;-57
2022/04/24 04:47:37;;;;;;;14.48;10.07;;;;;;;8.99;61.68;100191.06;5011153;28;20075;-57
2022/04/24 04:50:02;;;;;;;13.88;10.50;;;;;;;9.01;61.69;100189.13;5010485;28;20050;-57
2022/04/24 04:52:28;;;;;;;14.27;10.45;;;;;;;8.96;62.33;100202.00;5014143;28;20033;-57
2022/04/24 04:54:53;;;;;;;13.35;9.75;;;;;;;9.00;61.58;100192.75;5023653;28;20120;-57
2022/04/24 04:57:19;;;;;;;13.65;9.82;;;;;;;8.99;62.41;100196.38;5012696;28;20034;-57
2022/04/24 04:59:44;;;;;;;13.68;10.43;;;;;;;9.01;62.02;100194.41;5011269;28;20072;-57
2022/04/24 05:02:09;;;;;;;13.50;9.82;;;;;;;9.00;62.31;100192.75;5011427;28;20080;-55
2022/04/24 05:04:34;;;;;;;13.68;10.00;;;;;;;9.01;62.09;100198.84;5013594;28;20022;-53
2022/04/24 05:07:00;;;;;;;16.25;10.40;;;;;;;9.01;62.24;100204.97;5019521;28;20360;-56
2022/04/24 05:09:25;;;;;;;12.13;9.55;;;;;;;8.93;63.42;100206.81;5012321;28;20025;-55
2022/04/24 05:11:51;;;;;;;16.30;9.52;;;;;;;9.15;61.76;100215.88;5014428;28;20079;-54
2022/04/24 05:14:17;;;;;;;12.93;9.25;;;;;;;8.98;62.71;100221.16;5008838;28;20034;-54
2022/04/24 05:16:42;;;;;;;14.63;10.32;;;;;;;9.01;62.53;100220.84;5005920;28;20030;-55
2022/04/24 05:19:07;;;;;;;12.70;9.60;;;;;;;9.06;62.60;100219.50;5010793;28;20038;-54
2022/04/24 05:21:33;;;;;;;14.65;9.90;;;;;;;9.09;62.38;100227.91;5009079;28;20029;-54
2022/04/24 05:24:00;;;;;;;13.35;10.15;;;;;;;9.18;62.21;100226.09;5013991;28;20153;-54
2022/04/24 05:26:26;;;;;;;12.65;10.13;;;;;;;9.12;62.93;100234.69;5013914;28;20064;-54
2022/04/24 05:28:51;;;;;;;14.20;10.18;;;;;;;9.16;62.49;100228.09;5015117;28;20452;-56
2022/04/24 05:31:16;;;;;;;12.35;9.50;;;;;;;9.20;62.38;100229.41;5014370;28;20116;-54
2022/04/24 05:33:41;;;;;;;13.57;9.73;;;;;;;9.20;62.14;100224.13;5021143;28;20158;-58
2022/04/24 05:36:07;;;;;;;13.20;10.07;;;;;;;9.20;62.14;100234.72;5005979;28;20030;-58
2022/04/24 05:38:33;;;;;;;11.93;9.68;;;;;;;9.19;61.82;100232.22;5017769;28;20026;-57
2022/04/24 05:40:58;;;;;;;12.65;9.57;;;;;;;9.22;62.32;100224.78;5011520;28;20030;-57
2022/04/24 05:43:23;;;;;;;12.80;9.30;;;;;;;9.39;61.03;100237.97;5007782;28;20037;-58
2022/04/24 05:45:49;;;;;;;14.30;9.50;;;;;;;9.38;61.02;100231.84;5000646;28;20054;-58
2022/04/24 05:48:15;;;;;;;12.00;9.20;;;;;;;9.42;61.25;100240.28;5000331;28;20038;-58
2022/04/24 05:50:41;;;;;;;13.20;9.65;;;;;;;9.36;62.06;100236.50;5011934;28;20034;-59
2022/04/24 05:53:06;;;;;;;13.10;9.20;;;;;;;9.42;61.35;100242.94;5001218;28;20044;-58
2022/04/24 05:55:32;;;;;;;13.95;9.38;;;;;;;9.46;62.05;100243.41;5006634;28;20031;-58
2022/04/24 05:57:57;;;;;;;12.70;9.13;;;;;;;9.58;61.17;100246.53;5004082;28;20511;-58
2022/04/24 06:00:23;;;;;;;11.35;9.00;;;;;;;9.56;61.04;100236.13;5004992;28;20037;-58
2022/04/24 06:02:48;;;;;;;12.45;9.27;;;;;;;9.56;61.11;100249.34;5007775;28;20029;-57
2022/04/24 06:05:14;;;;;;;12.32;9.15;;;;;;;9.65;60.72;100250.16;5003937;28;20040;-57
2022/04/24 06:07:40;;;;;;;12.55;9.00;;;;;;;9.74;60.28;100248.31;5009303;28;20033;-58
2022/04/24 06:10:07;;;;;;;14.27;9.30;;;;;;;9.75;60.45;100253.44;5005343;28;20091;-57
2022/04/24 06:12:55;;;;;;;16.33;8.98;;;;;;;9.79;60.74;100253.94;5001756;28;20030;-57
2022/04/24 06:15:26;;;;;;;13.30;9.40;;;;;;;9.80;60.19;100255.56;5000781;28;20045;-58
2022/04/24 06:17:53;;;;;;;12.80;9.13;;;;;;;9.79;60.21;100260.06;5008093;28;20038;-57
2022/04/24 06:20:21;;;;;;;14.10;8.77;;;;;;;9.89;59.33;100269.63;5006122;28;20033;-57
2022/04/24 06:22:50;;;;;;;13.93;9.02;;;;;;;9.82;59.94;100249.13;4998717;28;20499;-57
2022/04/24 06:25:17;;;;;;;13.65;9.10;;;;;;;9.85;59.28;100261.19;5013760;28;20411;-57
2022/04/24 06:27:44;;;;;;;14.73;9.35;;;;;;;9.98;59.67;100252.72;5002028;28;20030;-57
2022/04/24 06:30:11;;;;;;;11.57;8.95;;;;;;;10.00;59.13;100260.47;5001854;28;20096;-57
2022/04/24 06:32:41;;;;;;;15.90;8.73;;;;;;;10.04;59.65;100257.31;5004520;28;20038;-57
2022/04/24 06:35:09;;;;;;;13.10;9.18;;;;;;;10.08;58.97;100263.91;5018557;28;20416;-57
2022/04/24 06:37:35;;;;;;;13.32;8.75;;;;;;;10.13;59.26;100265.22;5011435;28;20926;-57
2022/04/24 06:40:00;;;;;;;10.63;8.32;;;;;;;10.20;58.94;100266.16;5005489;28;20362;-57
2022/04/24 06:42:25;;;;;;;12.90;8.80;;;;;;;10.23;58.41;100269.28;5002405;28;20123;-56
2022/04/24 06:44:51;;;;;;;13.25;8.75;;;;;;;10.28;58.82;100268.81;5005498;28;20500;-58
2022/04/24 06:47:16;;;;;;;10.63;8.32;;;;;;;10.34;59.00;100272.56;5007624;28;20039;-59
2022/04/24 06:49:41;;;;;;;11.60;8.43;;;;;;;10.31;58.18;100268.44;5022044;28;20029;-59
2022/04/24 06:52:09;;;;;;;12.55;8.93;;;;;;;10.38;58.09;100279.19;5006106;28;20026;-58
2022/04/24 06:54:34;;;;;;;12.60;8.75;;;;;;;10.54;56.04;100278.28;5016081;28;20042;-58
2022/04/24 06:57:01;;;;;;;10.20;7.88;;;;;;;10.48;56.26;100274.53;5000155;28;20056;-58
2022/04/24 06:59:28;;;;;;;13.20;8.60;;;;;;;10.45;56.99;100281.97;5004438;28;23172;-57
2022/04/24 07:01:54;;;;;;;15.70;8.50;;;;;;;10.53;56.84;100276.63;5001433;28;20034;-57
2022/04/24 07:04:20;;;;;;;12.27;8.30;;;;;;;10.63;57.22;100266.63;5000796;28;20030;-57
2022/04/24 07:06:45;;;;;;;14.35;9.02;;;;;;;10.76;57.26;100275.84;5008372;28;20476;-57
2022/04/24 07:09:10;;;;;;;10.20;8.57;;;;;;;10.84;56.35;100273.13;5005934;28;20587;-58
2022/04/24 07:11:36;;;;;;;12.93;8.90;;;;;;;10.84;55.96;100270.47;5008583;28;20030;-57
2022/04/24 07:14:02;;;;;;;15.55;8.95;;;;;;;10.95;56.26;100273.72;5007728;28;20481;-58
2022/04/24 07:16:28;;;;;;;13.02;9.13;;;;;;;11.05;55.73;100279.56;5002894;28;20707;-57
2022/04/24 07:18:54;;;;;;;11.80;8.90;;;;;;;11.13;54.99;100276.88;5005727;28;20449;-58
2022/04/24 07:21:19;;;;;;;13.75;9.07;;;;;;;11.16;55.43;100281.00;5000222;28;20034;-57
2022/04/24 07:23:44;;;;;;;14.68;9.02;;;;;;;11.22;54.57;100274.13;5003900;28;20054;-57
2022/04/24 07:26:11;;;;;;;14.18;9.15;;;;;;;11.30;55.19;100282.03;5004597;28;20042;-57
2022/04/24 07:28:36;;;;;;;11.90;9.00;;;;;;;11.37;53.38;100277.66;5000531;28;20096;-58
2022/04/24 07:31:02;;;;;;;13.05;8.85;;;;;;;11.46;53.97;100280.22;5007582;28;20461;-58
2022/04/24 07:33:28;;;;;;;12.38;8.80;;;;;;;11.46;53.52;100286.38;5007499;28;20536;-57
2022/04/24 07:35:53;;;;;;;12.52;8.90;;;;;;;11.55;53.34;100289.78;5001284;28;20124;-58
2022/04/24 07:38:18;;;;;;;10.65;8.57;;;;;;;11.54;52.61;100288.94;5011256;28;20034;-57
2022/04/24 07:40:44;;;;;;;11.98;9.10;;;;;;;11.64;53.84;100287.84;5003964;28;20030;-57
2022/04/24 07:43:12;;;;;;;13.25;9.27;;;;;;;11.64;52.90;100278.03;5002014;28;20053;-58
2022/04/24 07:45:39;;;;;;;13.10;8.88;;;;;;;11.71;54.08;100286.91;5005903;28;20120;-59
2022/04/24 07:48:07;;;;;;;15.88;9.70;;;;;;;11.82;53.21;100295.44;5006878;28;20493;-58
2022/04/24 07:50:35;;;;;;;13.18;9.10;;;;;;;11.89;52.26;100284.94;5004273;28;20045;-59
2022/04/24 07:53:01;;;;;;;13.32;9.25;;;;;;;11.98;52.48;100281.97;5003363;28;20037;-57
2022/04/24 07:55:27;;;;;;;14.48;9.32;;;;;;;12.05;53.19;100283.94;5001079;28;20038;-58
2022/04/24 07:57:54;;;;;;;12.57;8.95;;;;;;;12.14;52.06;100282.81;5003202;28;20493;-58
2022/04/24 08:00:22;;;;;;;12.25;9.40;;;;;;;12.22;52.39;100285.38;5006401;28;20041;-57
2022/04/24 08:02:57;;;;;;;13.45;9.35;;;;;;;12.29;52.41;100288.09;5026089;28;20030;-58
2022/04/24 08:05:27;;;;;;;13.73;9.98;;;;;;;12.33;51.70;100291.22;5008907;28;20025;-58
2022/04/24 08:07:54;;;;;;;11.70;9.52;;;;;;;12.35;51.14;100294.53;5003862;28;20072;-58
2022/04/24 08:10:22;;;;;;;12.65;9.10;;;;;;;12.44;51.99;100298.69;5008798;28;20064;-58
2022/04/24 08:12:47;;;;;;;12.55;9.48;;;;;;;12.51;52.28;100293.47;5003799;28;20033;-61
2022/04/24 08:15:13;;;;;;;14.45;9.60;;;;;;;12.63;52.53;100301.78;5006036;28;20037;-61
2022/04/24 08:17:38;;;;;;;12.07;9.13;;;;;;;12.67;50.29;100292.41;5003532;28;20048;-61
2022/04/24 08:20:06;;;;;;;12.00;9.50;;;;;;;12.65;50.34;100283.81;5024173;28;20053;-61
2022/04/24 08:22:38;;;;;;;11.50;9.38;;;;;;;12.80;51.81;100296.22;5004408;28;20389;-61
2022/04/24 08:25:04;;;;;;;13.45;9.95;;;;;;;12.90;51.62;100299.38;5004380;28;20136;-61
2022/04/24 08:27:29;;;;;;;13.13;9.52;;;;;;;12.93;50.50;100296.34;5002962;28;20432;-61
2022/04/24 08:29:54;;;;;;;14.20;9.68;;;;;;;13.01;49.88;100304.22;5023298;28;20049;-61
2022/04/24 08:32:21;;;;;;;14.38;10.20;;;;;;;12.98;49.32;100301.91;5009116;28;20049;-60
2022/04/24 08:34:46;;;;;;;12.43;9.75;;;;;;;13.03;49.20;100301.38;5012148;28;20033;-60
2022/04/24 08:37:12;;;;;;;14.40;10.10;;;;;;;13.12;50.17;100310.03;5006273;28;20756;-60
2022/04/24 08:39:37;;;;;;;14.05;9.63;;;;;;;13.24;50.05;100305.84;5007749;28;20040;-60
2022/04/24 08:42:03;;;;;;;12.38;10.07;;;;;;;13.31;49.33;100304.06;5010939;28;20038;-60
2022/04/24 08:44:31;;;;;;;13.30;10.13;;;;;;;13.31;48.26;100298.72;5013189;28;20026;-59
2022/04/24 08:46:57;;;;;;;15.80;10.32;;;;;;;13.38;48.65;100316.59;5016203;28;20376;-60
2022/04/24 08:49:22;;;;;;;14.82;10.20;;;;;;;13.42;47.78;100304.53;5003192;28;20108;-59
2022/04/24 08:51:48;;;;;;;14.80;10.20;;;;;;;13.44;49.88;100302.50;5002147;28;20121;-59
2022/04/24 08:54:14;;;;;;;15.10;10.73;;;;;;;13.62;48.14;100303.88;5011523;28;20112;-59
2022/04/24 08:56:39;;;;;;;14.48;10.48;;;;;;;13.64;47.33;100299.19;5003507;28;20056;-60
2022/04/24 08:59:05;;;;;;;17.67;11.02;;;;;;;13.72;47.28;100312.38;5011232;28;20040;-59
2022/04/24 09:01:43;;;;;;;13.68;11.00;;;;;;;13.90;47.12;100316.34;5012024;28;20465;-60
2022/04/24 09:04:08;;;;;;;13.75;10.27;;;;;;;13.93;49.77;100311.47;5014275;28;20121;-59
2022/04/24 09:06:33;;;;;;;13.85;10.50;;;;;;;13.96;46.59;100310.25;5006590;28;20434;-60
2022/04/24 09:09:06;;;;;;;14.68;10.70;;;;;;;14.02;47.61;100304.13;5009977;28;20037;-60
2022/04/24 09:11:32;;;;;;;15.45;10.50;;;;;;;14.10;48.27;100309.28;5013084;28;20113;-60
2022/04/24 09:16:54;;;;;;;12.65;10.35;;;;;;;14.37;47.86;100317.38;5009163;28;20040;-59
2022/04/24 09:19:24;;;;;;;15.02;10.95;;;;;;;14.47;47.74;100306.34;5008346;28;21377;-60
2022/04/24 09:21:51;;;;;;;15.32;10.32;;;;;;;14.53;45.63;100316.22;5007279;28;20112;-60
2022/04/24 09:24:17;;;;;;;13.25;10.57;;;;;;;14.53;45.79;100315.41;5011243;28;20029;-60
2022/04/24 09:26:56;;;;;;;13.93;10.43;;;;;;;14.60;46.43;100316.22;5007784;28;20036;-60
2022/04/24 09:29:22;;;;;;;12.90;10.32;;;;;;;14.70;47.36;100315.03;5008158;28;20033;-60
2022/04/24 09:31:49;;;;;;;15.82;11.30;;;;;;;14.77;45.64;100310.56;5013898;28;20116;-60
2022/04/24 09:34:18;;;;;;;13.52;10.50;;;;;;;14.76;45.07;100319.59;5019001;28;20477;-59
2022/04/24 09:36:58;;;;;;;16.25;10.85;;;;;;;14.70;43.96;100321.19;5008491;28;20030;-60
2022/04/24 09:39:30;;;;;;;13.43;10.75;;;;;;;14.75;45.99;100312.63;5006298;28;20041;-59
2022/04/24 09:42:10;;;;;;;16.60;10.88;;;;;;;14.85;46.58;100299.69;5013061;28;20045;-59
2022/04/24 09:44:42;;;;;;;13.02;10.55;;;;;;;14.96;45.33;100316.13;5002701;28;20037;-60
2022/04/24 09:47:08;;;;;;;14.48;11.32;;;;;;;15.03;44.80;100316.97;5016489;28;20026;-60
2022/04/24 09:49:38;;;;;;;15.27;11.15;;;;;;;15.09;44.82;100318.81;4998772;28;20056;-60
2022/04/24 09:52:08;;;;;;;14.88;10.65;;;;;;;15.26;44.10;100315.75;5001521;28;20101;-59
2022/04/24 09:54:33;;;;;;;15.90;11.43;;;;;;;15.24;43.98;100307.13;5003658;28;20035;-60
2022/04/24 09:57:00;;;;;;;14.32;10.52;;;;;;;15.27;43.64;100314.72;5011925;28;20022;-60
2022/04/24 09:59:25;;;;;;;15.60;10.50;;;;;;;15.23;43.35;100313.47;5010549;28;20421;-60
2022/04/24 10:01:52;;;;;;;15.23;11.60;;;;;;;15.26;43.87;100313.06;5010219;28;20048;-60
2022/04/24 10:04:18;;;;;;;16.73;10.80;;;;;;;15.35;44.35;100311.84;5002245;28;20034;-60
2022/04/24 10:06:44;;;;;;;15.70;10.93;;;;;;;15.39;43.52;100317.59;5011251;28;20461;-60
2022/04/24 10:09:11;;;;;;;15.82;11.27;;;;;;;15.44;43.64;100310.59;5008883;28;20026;-59
2022/04/24 10:11:37;;;;;;;16.20;11.52;;;;;;;15.48;42.89;100327.03;5002607;28;21118;-59
2022/04/24 10:14:06;;;;;;;16.27;11.02;;;;;;;15.45;42.57;100322.91;5007632;28;20068;-59
2022/04/24 10:16:52;;;;;;;17.08;11.52;;;;;;;15.42;43.07;100318.00;5005540;28;20033;-59
2022/04/24 10:19:59;;;;;;;18.42;11.75;;;;;;;15.62;43.74;100316.31;5002868;28;20038;-59
2022/04/24 10:22:47;;;;;;;17.33;11.35;;;;;;;15.63;42.95;100318.78;5002046;28;20149;-58
2022/04/24 10:25:17;;;;;;;16.02;11.52;;;;;;;15.71;42.94;100309.75;5017060;28;20558;-58
2022/04/24 10:27:43;;;;;;;15.13;11.80;;;;;;;15.80;42.68;100318.34;5007623;28;20022;-58
2022/04/24 10:30:19;;;;;;;14.95;11.20;;;;;;;15.85;42.43;100311.34;5009089;28;20030;-58
2022/04/24 10:32:47;;;;;;;16.05;11.70;;;;;;;15.92;42.12;100319.38;4999845;28;20026;-59
2022/04/24 10:35:18;;;;;;;16.05;11.18;;;;;;;16.03;41.59;100328.59;5014861;28;20052;-58
2022/04/24 10:37:47;;;;;;;13.68;10.50;;;;;;;16.09;41.67;100317.06;5014441;28;20038;-59
2022/04/24 10:40:16;;;;;;;16.17;11.00;;;;;;;16.09;41.64;100310.91;5001414;28;20034;-59
2022/04/24 10:42:43;;;;;;;25.73;11.10;;;;;;;16.07;42.19;100326.31;5009566;28;20026;-59
2022/04/24 10:45:16;;;;;;;13.60;9.90;;;;;;;16.14;41.91;100322.59;5012513;28;20030;-59
2022/04/24 10:47:52;;;;;;;13.45;10.00;;;;;;;16.19;40.76;100313.94;5007021;28;20029;-58
2022/04/24 10:50:20;;;;;;;14.07;9.68;;;;;;;16.22;40.01;100332.25;5009115;28;20088;-59
2022/04/24 10:52:49;;;;;;;13.15;9.25;;;;;;;16.33;40.73;100321.94;5005086;28;20033;-57
2022/04/24 10:55:22;;;;;;;12.15;10.00;;;;;;;16.27;40.61;100321.75;5010829;28;20034;-58
2022/04/24 10:58:00;;;;;;;12.93;9.73;;;;;;;16.37;41.68;100320.44;5006458;28;20030;-58
2022/04/24 11:00:34;;;;;;;11.20;9.13;;;;;;;16.49;40.75;100321.41;5006460;28;20044;-58
2022/04/24 11:03:07;;;;;;;13.30;9.07;;;;;;;16.57;40.16;100323.03;5002047;28;20038;-59
2022/04/24 11:05:37;;;;;;;12.57;9.10;;;;;;;16.54;38.71;100316.25;5006423;28;20073;-59
2022/04/24 11:08:05;;;;;;;11.70;8.77;;;;;;;16.55;39.63;100330.47;5007651;28;20040;-58
2022/04/24 11:10:38;;;;;;;11.68;8.90;;;;;;;16.60;39.21;100314.59;5010148;28;20087;-59
2022/04/24 11:13:04;;;;;;;12.20;8.98;;;;;;;16.74;39.84;100323.38;5007063;28;20116;-58
2022/04/24 11:15:29;;;;;;;12.93;9.10;;;;;;;16.80;38.99;100321.66;5006415;28;20124;-58
2022/04/24 11:17:54;;;;;;;15.82;9.45;;;;;;;16.76;39.56;100315.94;5011948;28;20508;-58
2022/04/24 11:20:21;;;;;;;11.27;9.48;;;;;;;16.75;39.22;100319.66;5010334;28;20061;-59